createdAt,value
2024-05-09T00:01:10.569Z,39.40
2024-05-09T00:06:12.183Z,39.30
2024-05-09T00:11:13.809Z,39.30
2024-05-09T00:16:15.391Z,39.20
2024-05-09T00:21:17.003Z,39.30
2024-05-09T00:26:18.618Z,39.30
2024-05-09T00:31:20.190Z,39.30
2024-05-09T00:36:21.744Z,39.30
2024-05-09T00:41:23.313Z,39.20
2024-05-09T00:46:24.954Z,39.30
2024-05-09T00:51:26.497Z,39.30
2024-05-09T00:56:28.174Z,39.30
2024-05-09T01:01:29.831Z,39.30
2024-05-09T01:06:31.407Z,39.40
2024-05-09T01:11:33.041Z,39.40
2024-05-09T01:16:34.659Z,39.40
2024-05-09T01:21:36.192Z,39.40
2024-05-09T01:26:37.797Z,39.40
2024-05-09T01:31:39.418Z,39.50
2024-05-09T01:36:40.998Z,39.50
2024-05-09T01:41:42.566Z,39.60
2024-05-09T01:46:44.113Z,39.60
2024-05-09T01:51:45.696Z,39.50
2024-05-09T01:56:47.216Z,39.60
2024-05-09T02:01:56.662Z,39.60
2024-05-09T02:06:59.343Z,39.60
2024-05-09T02:12:01.196Z,39.60
2024-05-09T02:17:02.915Z,39.70
2024-05-09T02:22:04.486Z,39.70
2024-05-09T02:27:06.201Z,39.70
2024-05-09T02:32:07.843Z,39.70
2024-05-09T02:37:09.456Z,39.70
2024-05-09T02:42:11.005Z,39.80
2024-05-09T02:47:12.804Z,39.70
2024-05-09T02:52:14.571Z,39.80
2024-05-09T02:57:16.551Z,39.80
2024-05-09T03:02:18.158Z,39.80
2024-05-09T03:07:20.398Z,39.80
2024-05-09T03:12:22.035Z,39.80
2024-05-09T03:17:23.750Z,39.80
2024-05-09T03:22:25.438Z,39.80
2024-05-09T03:27:26.977Z,39.80
2024-05-09T03:32:28.759Z,39.80
2024-05-09T03:37:30.401Z,39.80
2024-05-09T03:42:31.962Z,39.80
2024-05-09T03:47:33.696Z,39.80
2024-05-09T03:52:35.301Z,39.80
2024-05-09T03:57:36.856Z,39.80
2024-05-09T04:02:38.482Z,39.90
2024-05-09T04:07:40.101Z,39.90
2024-05-09T04:12:41.644Z,39.90
2024-05-09T04:17:43.266Z,39.90
2024-05-09T04:22:45.033Z,39.90
2024-05-09T04:27:46.682Z,40.00
2024-05-09T04:32:48.356Z,40.00
2024-05-09T04:37:50.081Z,40.10
2024-05-09T04:42:51.679Z,40.10
2024-05-09T04:47:53.398Z,40.00
2024-05-09T04:52:55.128Z,40.70
2024-05-09T04:57:56.707Z,40.00
2024-05-09T05:02:58.596Z,40.00
2024-05-09T05:08:00.309Z,40.10
2024-05-09T05:13:01.876Z,40.20
2024-05-09T05:18:03.645Z,40.10
2024-05-09T05:23:05.344Z,40.10
2024-05-09T05:28:06.904Z,40.00
2024-05-09T05:33:08.524Z,40.00
2024-05-09T05:38:10.361Z,40.00
2024-05-09T05:43:12.020Z,40.10
2024-05-09T05:48:13.948Z,40.10
2024-05-09T05:53:15.940Z,40.00
2024-05-09T05:58:17.579Z,40.00
2024-05-09T06:03:19.155Z,40.00
2024-05-09T06:08:20.903Z,40.00
2024-05-09T06:13:22.503Z,40.00
2024-05-09T06:18:24.437Z,40.10
2024-05-09T06:23:26.334Z,40.20
2024-05-09T06:28:27.897Z,40.00
2024-05-09T06:33:29.920Z,40.20
2024-05-09T06:38:31.733Z,40.10
2024-05-09T06:43:33.324Z,40.00
2024-05-09T06:48:35.049Z,40.10
2024-05-09T06:53:36.724Z,40.10
2024-05-09T06:58:38.250Z,40.10
2024-05-09T07:03:39.864Z,40.10
2024-05-09T07:08:41.466Z,40.10
2024-05-09T07:13:43.028Z,40.10
2024-05-09T07:18:44.776Z,40.00
2024-05-09T07:23:47.428Z,40.10
2024-05-09T07:28:49.162Z,40.10
2024-05-09T07:33:51.107Z,40.10
2024-05-09T07:38:52.812Z,40.10
2024-05-09T07:43:54.431Z,40.10
2024-05-09T07:50:34.954Z,40.10
2024-05-09T07:54:17.709Z,40.10
2024-05-09T07:59:19.458Z,40.10
2024-05-09T08:04:22.974Z,40.10
2024-05-09T08:09:25.275Z,40.10
2024-05-09T08:14:26.807Z,40.10
2024-05-09T08:19:28.351Z,40.20
2024-05-09T08:24:29.922Z,40.20
2024-05-09T08:29:31.497Z,40.10
2024-05-09T08:34:33.147Z,40.10
2024-05-09T08:39:34.849Z,40.20
2024-05-09T08:44:36.435Z,40.20
2024-05-09T08:49:40.786Z,40.20
2024-05-09T08:54:42.883Z,40.20
2024-05-09T08:59:44.464Z,40.20
2024-05-09T09:04:46.079Z,40.20
2024-05-09T09:09:47.688Z,40.20
2024-05-09T09:14:49.264Z,40.20
2024-05-09T09:19:50.835Z,40.20
2024-05-09T09:24:52.438Z,40.20
2024-05-09T09:29:53.988Z,40.10
2024-05-09T09:34:55.636Z,40.20
2024-05-09T09:39:57.261Z,40.20
2024-05-09T09:45:04.692Z,40.20
2024-05-09T09:50:12.113Z,40.20
2024-05-09T09:55:18.267Z,40.20
2024-05-09T10:00:24.652Z,40.20
2024-05-09T10:05:32.263Z,40.10
2024-05-09T10:10:34.149Z,40.10
2024-05-09T10:15:36.044Z,40.10
2024-05-09T10:20:37.712Z,40.20
2024-05-09T10:25:39.306Z,40.20
2024-05-09T10:30:42.767Z,40.10
2024-05-09T10:35:44.773Z,40.10
2024-05-09T10:40:46.365Z,40.20
2024-05-09T10:45:48.055Z,40.80
2024-05-09T10:50:49.603Z,40.20
2024-05-09T10:55:51.142Z,40.20
2024-05-09T11:00:52.792Z,40.20
2024-05-09T11:05:54.404Z,40.20
2024-05-09T11:10:56.031Z,40.20
2024-05-09T11:15:57.695Z,40.20
2024-05-09T11:20:59.256Z,40.20
2024-05-09T11:26:00.797Z,40.20
2024-05-09T11:31:02.376Z,40.20
2024-05-09T11:36:03.974Z,40.20
2024-05-09T11:41:05.627Z,40.20
2024-05-09T11:46:07.282Z,40.20
2024-05-09T11:51:08.858Z,40.20
2024-05-09T11:56:10.391Z,40.20
2024-05-09T12:01:12.014Z,40.20
2024-05-09T12:06:13.643Z,40.20
2024-05-09T12:11:15.329Z,40.20
2024-05-09T12:16:17.190Z,40.10
2024-05-09T12:21:18.831Z,40.20
2024-05-09T12:26:20.374Z,40.20
2024-05-09T12:31:21.955Z,40.10
2024-05-09T12:36:23.501Z,40.10
2024-05-09T12:41:25.029Z,40.10
2024-05-09T12:46:26.898Z,40.10
2024-05-09T12:51:28.588Z,40.00
2024-05-09T12:56:30.218Z,40.10
2024-05-09T13:01:31.871Z,40.00
2024-05-09T13:06:33.534Z,40.00
2024-05-09T13:11:35.130Z,40.00
2024-05-09T13:16:36.742Z,40.00
2024-05-09T13:21:38.464Z,40.00
2024-05-09T13:26:40.020Z,39.90
2024-05-09T13:31:41.563Z,39.90
2024-05-09T13:36:43.139Z,39.90
2024-05-09T13:41:44.726Z,39.90
2024-05-09T13:46:46.301Z,39.90
2024-05-09T13:51:47.902Z,39.90
2024-05-09T13:56:49.663Z,39.90
2024-05-09T14:01:51.332Z,40.00
2024-05-09T14:06:53.027Z,40.00
2024-05-09T14:11:54.659Z,39.90
2024-05-09T14:16:56.312Z,40.00
2024-05-09T14:21:57.996Z,39.90
2024-05-09T14:26:59.577Z,39.90
2024-05-09T14:32:01.131Z,39.90
2024-05-09T14:37:02.691Z,40.00
2024-05-09T14:42:04.256Z,40.00
2024-05-09T14:47:05.839Z,40.00
2024-05-09T14:52:07.566Z,40.00
2024-05-09T14:57:09.172Z,40.00
2024-05-09T15:02:10.961Z,40.10
2024-05-09T15:07:12.676Z,40.00
2024-05-09T15:12:14.238Z,39.70
2024-05-09T15:17:15.772Z,39.10
2024-05-09T15:22:17.403Z,38.70
2024-05-09T15:27:19.103Z,38.50
2024-05-09T15:32:20.725Z,38.60
2024-05-09T15:37:22.483Z,38.60
2024-05-09T15:42:24.159Z,38.50
2024-05-09T15:47:26.763Z,38.70
2024-05-09T15:52:28.357Z,38.90
2024-05-09T15:57:29.942Z,38.90
2024-05-09T16:02:31.593Z,38.90
2024-05-09T16:07:33.218Z,38.90
2024-05-09T16:12:34.861Z,40.10
2024-05-09T16:17:36.578Z,40.10
2024-05-09T16:22:38.198Z,40.00
2024-05-09T16:27:39.759Z,39.70
2024-05-09T16:32:41.471Z,39.10
2024-05-09T16:37:43.159Z,38.90
2024-05-09T16:42:44.770Z,38.90
2024-05-09T16:47:46.467Z,38.90
2024-05-09T16:52:48.159Z,38.70
2024-05-09T16:57:49.769Z,38.50
2024-05-09T17:02:51.356Z,38.30
2024-05-09T17:07:52.965Z,38.20
2024-05-09T17:12:54.624Z,38.20
2024-05-09T17:17:56.279Z,38.20
2024-05-09T17:22:57.846Z,38.20
2024-05-09T17:27:59.643Z,38.20
2024-05-09T17:33:01.854Z,38.20
2024-05-09T17:38:03.614Z,38.20
2024-05-09T17:43:05.951Z,38.30
2024-05-09T17:48:08.636Z,38.50
2024-05-09T17:53:10.600Z,38.50
2024-05-09T17:58:12.480Z,38.60
2024-05-09T18:03:14.612Z,38.60
2024-05-09T18:08:16.442Z,38.60
2024-05-09T18:13:18.023Z,38.60
2024-05-09T18:18:19.800Z,38.60
2024-05-09T18:23:21.432Z,38.60
2024-05-09T18:28:23.024Z,38.60
2024-05-09T18:33:25.118Z,38.60
2024-05-09T18:38:26.893Z,38.60
2024-05-09T18:43:35.072Z,38.60
2024-05-09T18:48:43.517Z,38.50
2024-05-09T18:53:45.297Z,38.60
2024-05-09T18:58:46.909Z,38.60
2024-05-09T19:03:48.746Z,38.70
2024-05-09T19:08:50.420Z,38.80
2024-05-09T19:13:51.952Z,38.90
2024-05-09T19:18:53.737Z,38.90
2024-05-09T19:23:55.492Z,38.80
2024-05-09T19:28:57.070Z,38.60
2024-05-09T19:33:58.676Z,38.50
2024-05-09T19:39:00.248Z,38.40
2024-05-09T19:44:01.886Z,38.20
2024-05-09T19:49:03.629Z,38.00
2024-05-09T19:54:05.284Z,38.00
2024-05-09T19:59:06.815Z,37.90
2024-05-09T20:04:08.557Z,37.80
2024-05-09T20:09:10.157Z,37.80
2024-05-09T20:14:11.693Z,37.90
2024-05-09T20:19:13.319Z,37.90
2024-05-09T20:24:14.936Z,37.90
2024-05-09T20:29:16.480Z,37.90
2024-05-09T20:34:18.081Z,38.00
2024-05-09T20:39:19.650Z,38.10
2024-05-09T20:44:21.204Z,38.10
2024-05-09T20:49:22.826Z,38.10
2024-05-09T20:54:24.548Z,38.20
2024-05-09T20:59:26.079Z,38.20
2024-05-09T21:04:27.739Z,38.20
2024-05-09T21:09:29.395Z,38.20
2024-05-09T21:14:30.920Z,38.20
2024-05-09T21:19:32.457Z,38.30
2024-05-09T21:24:34.061Z,38.30
2024-05-09T21:29:35.609Z,38.30
2024-05-09T21:34:37.243Z,38.30
2024-05-09T21:39:38.846Z,38.30
2024-05-09T21:44:40.431Z,38.40
2024-05-09T21:49:42.025Z,38.40
2024-05-09T21:54:43.599Z,38.50
2024-05-09T21:59:45.155Z,38.40
2024-05-09T22:04:46.749Z,38.40
2024-05-09T22:09:48.384Z,38.30
2024-05-09T22:14:49.948Z,38.20
2024-05-09T22:19:51.471Z,38.20
2024-05-09T22:24:53.082Z,38.20
2024-05-09T22:29:54.656Z,38.20
2024-05-09T22:34:56.262Z,38.20
2024-05-09T22:39:57.855Z,38.20
2024-05-09T22:44:59.412Z,38.20
2024-05-09T22:50:00.961Z,38.20
2024-05-09T22:55:02.551Z,38.20
2024-05-09T23:00:05.177Z,38.20
2024-05-09T23:05:08.089Z,38.20
2024-05-09T23:10:13.466Z,38.20
2024-05-09T23:15:22.266Z,38.20
2024-05-09T23:20:33.401Z,38.20
2024-05-09T23:25:39.500Z,38.30
2024-05-09T23:30:41.919Z,38.30
2024-05-09T23:35:44.508Z,38.30
2024-05-09T23:40:46.440Z,38.30
2024-05-09T23:45:48.080Z,38.20
2024-05-09T23:50:49.654Z,38.30
2024-05-09T23:55:51.223Z,38.30
